Aérodrome :
LOGIN :

S'inscrire | Disclaimer

   EN    FR    IT 

 










Légende :    VFR   VFR Marginal   IFR   IFR Intensif   IFR Très Intensif
Visi : 
Plafond : 
>= 8 km
>= 3000ft
5 à 8 km
1000 à 3000 ft
1500m à 5 km
500 à 1000 ft
800 à 1500m
200 à 500 ft
< 800m
< 200 ft
Symboles :   Orages  Brouillard  Fortes neiges  Fortes précipitations  Vent > 20 kt
SIGMETs :   Divers  Orages  Givrage  Turbulence  Onde Orograph.  Cendres Volcan.






- Altitude de l'aérodrome : 1247 ft
- Code IATA : PRG


LKPR - Praha Ruzyne

DERNIER METAR :
  • 071530Z 07007KT 040V170 CAVOK 22/08 Q1022 NOSIG

METARs EXPIRÉS :
  • 071500Z 06005KT 010V100 CAVOK 22/07 Q1022 NOSIG
  • 071430Z 04005KT 350V090 CAVOK 22/09 Q1022 NOSIG
  • 071400Z VRB04KT CAVOK 22/07 Q1023 NOSIG
  • 071330Z VRB04KT CAVOK 22/09 Q1023 NOSIG
  • 071300Z 04006KT 350V090 CAVOK 22/08 Q1023 NOSIG

TAF TAF LKPR
Valide du 07 à 12h jusqu'au 08 à 18h UTC


071100Z 0712/0818 08008KT CAVOK
TEMPO 0712/0720 05010G20KT
BECMG 0800/0802 02004KT
TEMPO 0814/0818 02012G22KT



MET'MAP, la Météo Aéronautique d'un coup d'oeil ! - Copyright ORBIFLY Décembre 2007 - Disclaimer

ORBIFLY MET'MAP TEAM :

Programmation & Développement : Alexandra Zaïnal
Sur une idée originale de : Baudouin d'Aumeries
Soutien technique & logistique : Manuel Goepfert
Assistance : Marc-Olivier Méhu




SOURCES & CREDITS :

   NOAA